SWR755G LSZH-LFKB
Flight info
| Callsign | SWR755G |
|---|---|
| Flight time | 0h 57m |
| Altitude | 29000 |
| Route | GERSA N850 DEGAD Z424 AKASU/N0384F190 Y29 NELAB DCT TONDA T445 LAGEN L50 UNITA DCT LIGUR |
| Aircraft | A320/M-SDE3FGHIRWY/LB1 |
Departure
| Time | 2026-04-18 07:51 |
|---|---|
| Airport | Zürich Airport (LSZH) |
Arrival
| Time | 2026-04-18 08:48 |
|---|---|
| Airport | Bastia-Poretta International airport (LFKB) |
| Time | Latitude | Longitude | Altitude | Speed | Heading |
|---|---|---|---|---|---|
| 2026-04-18 07:41 | 47.45347 | 8.55754 | 1424 ft | 0 kts | 6° |
| 2026-04-18 07:42 | 47.45324 | 8.55751 | 1405 ft | 4 kts | 2° |
| 2026-04-18 07:42 | 47.45297 | 8.55752 | 1403 ft | 4 kts | 352° |
| 2026-04-18 07:42 | 47.45272 | 8.55762 | 1399 ft | 4 kts | 322° |
| 2026-04-18 07:42 | 47.45262 | 8.55783 | 1401 ft | 1 kts | 276° |
| 2026-04-18 07:43 | 47.45261 | 8.55789 | 1397 ft | 0 kts | 276° |
| 2026-04-18 07:45 | 47.45261 | 8.55788 | 1397 ft | 1 kts | 276° |
| 2026-04-18 07:45 | 47.45262 | 8.55773 | 1401 ft | 1 kts | 275° |
| 2026-04-18 07:45 | 47.45265 | 8.55722 | 1402 ft | 12 kts | 275° |
| 2026-04-18 07:46 | 47.45274 | 8.55591 | 1404 ft | 13 kts | 281° |
| 2026-04-18 07:46 | 47.45312 | 8.55465 | 1403 ft | 16 kts | 300° |
| 2026-04-18 07:46 | 47.45407 | 8.55366 | 1403 ft | 18 kts | 334° |
| 2026-04-18 07:46 | 47.45526 | 8.55281 | 1404 ft | 20 kts | 335° |
| 2026-04-18 07:47 | 47.45664 | 8.55213 | 1402 ft | 19 kts | 15° |
| 2026-04-18 07:47 | 47.45679 | 8.55296 | 1400 ft | 7 kts | 99° |
| 2026-04-18 07:47 | 47.45672 | 8.55383 | 1402 ft | 8 kts | 96° |
| 2026-04-18 07:47 | 47.45665 | 8.55471 | 1397 ft | 8 kts | 96° |
| 2026-04-18 07:48 | 47.45660 | 8.55552 | 1404 ft | 7 kts | 95° |
| 2026-04-18 07:48 | 47.45652 | 8.55669 | 1397 ft | 14 kts | 96° |
| 2026-04-18 07:48 | 47.45641 | 8.55822 | 1399 ft | 17 kts | 97° |
| 2026-04-18 07:48 | 47.45628 | 8.56001 | 1397 ft | 19 kts | 96° |
| 2026-04-18 07:49 | 47.45613 | 8.56202 | 1398 ft | 21 kts | 96° |
| 2026-04-18 07:49 | 47.45599 | 8.56422 | 1397 ft | 22 kts | 96° |
| 2026-04-18 07:49 | 47.45582 | 8.56660 | 1397 ft | 24 kts | 96° |
| 2026-04-18 07:49 | 47.45565 | 8.56911 | 1397 ft | 23 kts | 92° |
| 2026-04-18 07:50 | 47.45606 | 8.57014 | 1402 ft | 9 kts | 20° |
| 2026-04-18 07:50 | 47.45662 | 8.56955 | 1407 ft | 22 kts | 283° |
| 2026-04-18 07:50 | 47.45702 | 8.56458 | 1399 ft | 84 kts | 276° |
| 2026-04-18 07:50 | 47.45785 | 8.55267 | 1395 ft | 146 kts | 276° |
| 2026-04-18 07:51 | 47.45907 | 8.53629 | 1823 ft | 164 kts | 276° |
| 2026-04-18 07:51 | 47.46026 | 8.51965 | 2658 ft | 162 kts | 276° |
| 2026-04-18 07:51 | 47.46143 | 8.50309 | 3381 ft | 165 kts | 276° |
| 2026-04-18 07:51 | 47.46233 | 8.48518 | 3754 ft | 186 kts | 265° |
| 2026-04-18 07:52 | 47.45640 | 8.46741 | 4061 ft | 208 kts | 223° |
| 2026-04-18 07:52 | 47.44464 | 8.45269 | 4395 ft | 235 kts | 220° |
| 2026-04-18 07:52 | 47.43263 | 8.43454 | 4919 ft | 259 kts | 230° |
| 2026-04-18 07:52 | 47.42126 | 8.41290 | 5675 ft | 271 kts | 234° |
| 2026-04-18 07:53 | 47.41011 | 8.39019 | 6642 ft | 275 kts | 232° |
| 2026-04-18 07:53 | 47.39546 | 8.37170 | 7549 ft | 280 kts | 207° |
| 2026-04-18 07:53 | 47.37662 | 8.36429 | 8470 ft | 285 kts | 181° |
| 2026-04-18 07:53 | 47.35719 | 8.37043 | 9389 ft | 292 kts | 154° |
| 2026-04-18 07:54 | 47.33952 | 8.38488 | 10281 ft | 296 kts | 153° |
| 2026-04-18 07:54 | 47.32067 | 8.39944 | 10752 ft | 317 kts | 154° |
| 2026-04-18 07:54 | 47.29988 | 8.41467 | 11079 ft | 341 kts | 155° |
| 2026-04-18 07:54 | 47.27797 | 8.43044 | 11528 ft | 357 kts | 155° |
| 2026-04-18 07:55 | 47.25544 | 8.44672 | 12223 ft | 364 kts | 154° |
| 2026-04-18 07:55 | 47.23285 | 8.46321 | 12950 ft | 370 kts | 154° |
| 2026-04-18 07:55 | 47.20930 | 8.48052 | 13706 ft | 376 kts | 154° |
| 2026-04-18 07:55 | 47.18608 | 8.49765 | 14387 ft | 381 kts | 155° |
| 2026-04-18 07:56 | 47.16086 | 8.51167 | 15061 ft | 385 kts | 166° |
| 2026-04-18 07:56 | 47.13447 | 8.51868 | 15745 ft | 387 kts | 176° |
| 2026-04-18 07:56 | 47.10754 | 8.52251 | 16441 ft | 391 kts | 176° |
| 2026-04-18 07:56 | 47.08032 | 8.52628 | 17112 ft | 395 kts | 176° |
| 2026-04-18 07:57 | 47.05283 | 8.53009 | 17768 ft | 399 kts | 176° |
| 2026-04-18 07:57 | 47.02543 | 8.53398 | 18408 ft | 403 kts | 176° |
| 2026-04-18 07:57 | 46.99735 | 8.53807 | 18974 ft | 407 kts | 176° |
| 2026-04-18 07:57 | 46.96906 | 8.54221 | 19532 ft | 410 kts | 176° |
| 2026-04-18 07:58 | 46.91187 | 8.55052 | 20673 ft | 416 kts | 176° |
| 2026-04-18 07:58 | 46.88293 | 8.55467 | 21188 ft | 420 kts | 176° |
| 2026-04-18 07:58 | 46.85373 | 8.55886 | 21750 ft | 423 kts | 176° |
| 2026-04-18 07:59 | 46.82437 | 8.56309 | 22195 ft | 426 kts | 176° |
| 2026-04-18 07:59 | 46.79480 | 8.56733 | 22720 ft | 429 kts | 176° |
| 2026-04-18 07:59 | 46.76502 | 8.57157 | 23255 ft | 431 kts | 176° |
| 2026-04-18 07:59 | 46.73504 | 8.57584 | 23786 ft | 433 kts | 176° |
| 2026-04-18 08:00 | 46.70491 | 8.58015 | 24223 ft | 436 kts | 176° |
| 2026-04-18 08:00 | 46.67460 | 8.58449 | 24654 ft | 438 kts | 176° |
| 2026-04-18 08:00 | 46.64421 | 8.58882 | 25050 ft | 440 kts | 176° |
| 2026-04-18 08:00 | 46.61358 | 8.59315 | 25456 ft | 443 kts | 176° |
| 2026-04-18 08:01 | 46.58283 | 8.59751 | 25890 ft | 445 kts | 176° |
| 2026-04-18 08:01 | 46.55193 | 8.60188 | 26316 ft | 447 kts | 176° |
| 2026-04-18 08:01 | 46.52095 | 8.60624 | 26727 ft | 449 kts | 176° |
| 2026-04-18 08:01 | 46.48980 | 8.61020 | 27133 ft | 450 kts | 180° |
| 2026-04-18 08:02 | 46.45856 | 8.60854 | 27517 ft | 449 kts | 189° |
| 2026-04-18 08:02 | 46.42804 | 8.59945 | 27912 ft | 448 kts | 199° |
| 2026-04-18 08:02 | 46.39906 | 8.58326 | 28250 ft | 447 kts | 208° |
| 2026-04-18 08:02 | 46.37215 | 8.56099 | 28622 ft | 446 kts | 214° |
| 2026-04-18 08:03 | 46.34567 | 8.53721 | 28990 ft | 448 kts | 214° |
| 2026-04-18 08:03 | 46.31900 | 8.51361 | 29185 ft | 449 kts | 211° |
| 2026-04-18 08:03 | 46.29070 | 8.49490 | 29222 ft | 447 kts | 201° |
| 2026-04-18 08:04 | 46.22949 | 8.47958 | 29212 ft | 451 kts | 181° |
| 2026-04-18 08:04 | 46.16676 | 8.48743 | 29203 ft | 453 kts | 176° |
| 2026-04-18 08:05 | 46.10402 | 8.49343 | 29204 ft | 451 kts | 185° |
| 2026-04-18 08:05 | 46.04192 | 8.48294 | 29176 ft | 450 kts | 189° |
| 2026-04-18 08:06 | 45.97984 | 8.47132 | 29181 ft | 450 kts | 189° |
| 2026-04-18 08:06 | 45.91764 | 8.45988 | 29181 ft | 450 kts | 189° |
| 2026-04-18 08:07 | 45.85546 | 8.44848 | 29174 ft | 451 kts | 189° |
| 2026-04-18 08:07 | 45.79326 | 8.43699 | 29167 ft | 451 kts | 189° |
| 2026-04-18 08:08 | 45.73099 | 8.42549 | 29167 ft | 451 kts | 189° |
| 2026-04-18 08:08 | 45.66906 | 8.41411 | 29162 ft | 451 kts | 189° |
| 2026-04-18 08:09 | 45.60703 | 8.39952 | 29156 ft | 450 kts | 195° |
| 2026-04-18 08:09 | 45.54617 | 8.37856 | 29158 ft | 450 kts | 195° |
| 2026-04-18 08:10 | 45.48519 | 8.35756 | 29157 ft | 451 kts | 195° |
| 2026-04-18 08:10 | 45.42415 | 8.33666 | 29150 ft | 451 kts | 195° |
| 2026-04-18 08:11 | 45.36306 | 8.31588 | 29159 ft | 452 kts | 195° |
| 2026-04-18 08:11 | 45.30181 | 8.29507 | 29162 ft | 452 kts | 195° |
| 2026-04-18 08:12 | 45.24045 | 8.27420 | 29150 ft | 453 kts | 195° |
| 2026-04-18 08:12 | 45.17909 | 8.25335 | 29155 ft | 453 kts | 195° |
| 2026-04-18 08:13 | 45.12753 | 8.23942 | 29146 ft | 455 kts | 186° |
| 2026-04-18 08:13 | 45.06440 | 8.24668 | 29142 ft | 458 kts | 167° |
| 2026-04-18 08:14 | 45.00274 | 8.27008 | 29146 ft | 459 kts | 166° |
| 2026-04-18 08:14 | 44.94104 | 8.29354 | 29143 ft | 459 kts | 166° |
| 2026-04-18 08:15 | 44.87926 | 8.31684 | 29139 ft | 459 kts | 166° |
| 2026-04-18 08:15 | 44.81747 | 8.34008 | 29142 ft | 460 kts | 166° |
| 2026-04-18 08:16 | 44.75592 | 8.36316 | 29154 ft | 460 kts | 165° |
| 2026-04-18 08:16 | 44.69395 | 8.38635 | 29152 ft | 461 kts | 166° |
| 2026-04-18 08:17 | 44.63201 | 8.40955 | 29147 ft | 461 kts | 165° |
| 2026-04-18 08:17 | 44.57006 | 8.43278 | 29148 ft | 461 kts | 165° |
| 2026-04-18 08:18 | 44.50796 | 8.45585 | 29140 ft | 461 kts | 166° |
| 2026-04-18 08:18 | 44.44594 | 8.47884 | 29137 ft | 461 kts | 166° |
| 2026-04-18 08:19 | 44.38653 | 8.51233 | 29133 ft | 462 kts | 148° |
| 2026-04-18 08:19 | 44.33584 | 8.56711 | 29130 ft | 461 kts | 139° |
| 2026-04-18 08:20 | 44.28679 | 8.62501 | 29136 ft | 462 kts | 139° |
| 2026-04-18 08:20 | 44.23763 | 8.68278 | 29137 ft | 463 kts | 139° |
| 2026-04-18 08:21 | 44.18827 | 8.74054 | 29150 ft | 463 kts | 139° |
| 2026-04-18 08:21 | 44.13910 | 8.79826 | 29154 ft | 462 kts | 139° |
| 2026-04-18 08:22 | 44.08993 | 8.85586 | 29155 ft | 462 kts | 139° |
| 2026-04-18 08:22 | 44.04070 | 8.91327 | 28406 ft | 463 kts | 139° |
| 2026-04-18 08:22 | 44.01600 | 8.94198 | 27602 ft | 461 kts | 139° |
| 2026-04-18 08:23 | 43.99115 | 8.96984 | 26832 ft | 458 kts | 144° |
| 2026-04-18 08:23 | 43.96378 | 8.99235 | 26064 ft | 457 kts | 154° |
| 2026-04-18 08:23 | 43.93413 | 9.00774 | 25322 ft | 454 kts | 165° |
| 2026-04-18 08:23 | 43.90307 | 9.01576 | 24611 ft | 451 kts | 175° |
| 2026-04-18 08:24 | 43.87183 | 9.01630 | 23901 ft | 448 kts | 185° |
| 2026-04-18 08:24 | 43.84084 | 9.01249 | 23127 ft | 445 kts | 186° |
| 2026-04-18 08:24 | 43.81005 | 9.00878 | 22465 ft | 440 kts | 185° |
| 2026-04-18 08:24 | 43.77966 | 9.00523 | 21825 ft | 435 kts | 185° |
| 2026-04-18 08:25 | 43.74968 | 9.00175 | 21228 ft | 430 kts | 185° |
| 2026-04-18 08:25 | 43.72009 | 8.99829 | 20639 ft | 425 kts | 185° |
| 2026-04-18 08:25 | 43.69107 | 8.99488 | 20078 ft | 420 kts | 185° |
| 2026-04-18 08:25 | 43.66212 | 8.99151 | 19536 ft | 415 kts | 185° |
| 2026-04-18 08:26 | 43.63350 | 8.98816 | 19006 ft | 410 kts | 185° |
| 2026-04-18 08:26 | 43.60522 | 8.98482 | 18487 ft | 406 kts | 185° |
| 2026-04-18 08:26 | 43.57719 | 8.98150 | 17922 ft | 402 kts | 185° |
| 2026-04-18 08:26 | 43.54955 | 8.97820 | 17398 ft | 397 kts | 185° |
| 2026-04-18 08:27 | 43.52215 | 8.97490 | 16875 ft | 393 kts | 185° |
| 2026-04-18 08:27 | 43.49507 | 8.97158 | 16348 ft | 389 kts | 185° |
| 2026-04-18 08:27 | 43.46820 | 8.96826 | 15814 ft | 387 kts | 185° |
| 2026-04-18 08:27 | 43.44138 | 8.96494 | 15270 ft | 385 kts | 185° |
| 2026-04-18 08:28 | 43.41463 | 8.96163 | 14710 ft | 384 kts | 185° |
| 2026-04-18 08:28 | 43.38806 | 8.95834 | 14143 ft | 383 kts | 185° |
| 2026-04-18 08:28 | 43.36149 | 8.95514 | 13816 ft | 383 kts | 185° |
| 2026-04-18 08:28 | 43.33493 | 8.95209 | 13524 ft | 383 kts | 185° |
| 2026-04-18 08:29 | 43.30842 | 8.94913 | 13229 ft | 381 kts | 185° |
| 2026-04-18 08:29 | 43.28206 | 8.94623 | 12934 ft | 379 kts | 185° |
| 2026-04-18 08:29 | 43.25584 | 8.94423 | 12644 ft | 377 kts | 179° |
| 2026-04-18 08:29 | 43.22995 | 8.94851 | 12338 ft | 374 kts | 167° |
| 2026-04-18 08:30 | 43.20539 | 8.95980 | 12057 ft | 371 kts | 155° |
| 2026-04-18 08:30 | 43.18295 | 8.97694 | 11774 ft | 369 kts | 148° |
| 2026-04-18 08:30 | 43.16104 | 8.99516 | 11488 ft | 367 kts | 148° |
| 2026-04-18 08:30 | 43.13924 | 9.01321 | 11202 ft | 365 kts | 148° |
| 2026-04-18 08:31 | 43.11755 | 9.03102 | 10927 ft | 359 kts | 148° |
| 2026-04-18 08:31 | 43.09662 | 9.04814 | 10793 ft | 343 kts | 148° |
| 2026-04-18 08:31 | 43.07660 | 9.06453 | 10675 ft | 329 kts | 148° |
| 2026-04-18 08:31 | 43.05738 | 9.08033 | 10557 ft | 316 kts | 148° |
| 2026-04-18 08:32 | 43.03887 | 9.09557 | 10424 ft | 305 kts | 148° |
| 2026-04-18 08:32 | 43.02086 | 9.11039 | 10195 ft | 299 kts | 148° |
| 2026-04-18 08:32 | 43.00312 | 9.12499 | 10127 ft | 298 kts | 148° |
| 2026-04-18 08:32 | 42.98537 | 9.13958 | 9929 ft | 297 kts | 148° |
| 2026-04-18 08:33 | 42.96775 | 9.15405 | 9721 ft | 295 kts | 148° |
| 2026-04-18 08:33 | 42.95017 | 9.16845 | 9519 ft | 294 kts | 148° |
| 2026-04-18 08:33 | 42.93266 | 9.18277 | 9314 ft | 293 kts | 148° |
| 2026-04-18 08:33 | 42.91517 | 9.19706 | 9111 ft | 292 kts | 148° |
| 2026-04-18 08:34 | 42.89776 | 9.21127 | 8914 ft | 291 kts | 148° |
| 2026-04-18 08:34 | 42.88044 | 9.22540 | 8712 ft | 290 kts | 148° |
| 2026-04-18 08:34 | 42.86316 | 9.23951 | 8504 ft | 289 kts | 148° |
| 2026-04-18 08:34 | 42.84600 | 9.25354 | 8318 ft | 288 kts | 147° |
| 2026-04-18 08:35 | 42.82883 | 9.26757 | 8115 ft | 287 kts | 147° |
| 2026-04-18 08:35 | 42.81175 | 9.28149 | 7924 ft | 285 kts | 148° |
| 2026-04-18 08:35 | 42.79471 | 9.29536 | 7715 ft | 284 kts | 147° |
| 2026-04-18 08:35 | 42.77772 | 9.30923 | 7527 ft | 284 kts | 147° |
| 2026-04-18 08:36 | 42.76104 | 9.32286 | 7340 ft | 283 kts | 147° |
| 2026-04-18 08:36 | 42.74420 | 9.33659 | 7143 ft | 282 kts | 147° |
| 2026-04-18 08:36 | 42.72738 | 9.35025 | 6949 ft | 280 kts | 147° |
| 2026-04-18 08:36 | 42.71051 | 9.36394 | 6756 ft | 278 kts | 147° |
| 2026-04-18 08:37 | 42.69392 | 9.37741 | 6563 ft | 277 kts | 147° |
| 2026-04-18 08:37 | 42.67766 | 9.39061 | 6371 ft | 276 kts | 147° |
| 2026-04-18 08:37 | 42.66119 | 9.40398 | 6169 ft | 276 kts | 147° |
| 2026-04-18 08:37 | 42.64475 | 9.41728 | 5980 ft | 275 kts | 147° |
| 2026-04-18 08:38 | 42.62833 | 9.43054 | 5793 ft | 274 kts | 147° |
| 2026-04-18 08:38 | 42.61198 | 9.44373 | 5523 ft | 273 kts | 147° |
| 2026-04-18 08:38 | 42.59573 | 9.45682 | 5291 ft | 271 kts | 147° |
| 2026-04-18 08:38 | 42.57954 | 9.46986 | 5108 ft | 272 kts | 147° |
| 2026-04-18 08:39 | 42.56317 | 9.48298 | 4915 ft | 273 kts | 147° |
| 2026-04-18 08:39 | 42.54678 | 9.49587 | 4718 ft | 272 kts | 148° |
| 2026-04-18 08:39 | 42.53036 | 9.50866 | 4536 ft | 272 kts | 148° |
| 2026-04-18 08:39 | 42.51401 | 9.52137 | 4342 ft | 270 kts | 148° |
| 2026-04-18 08:40 | 42.49774 | 9.53405 | 4157 ft | 269 kts | 148° |
| 2026-04-18 08:40 | 42.48153 | 9.54665 | 3971 ft | 268 kts | 148° |
| 2026-04-18 08:40 | 42.46539 | 9.55918 | 3802 ft | 264 kts | 148° |
| 2026-04-18 08:40 | 42.44986 | 9.57122 | 3701 ft | 250 kts | 148° |
| 2026-04-18 08:41 | 42.43514 | 9.58259 | 3594 ft | 237 kts | 148° |
| 2026-04-18 08:41 | 42.42106 | 9.59330 | 3495 ft | 226 kts | 149° |
| 2026-04-18 08:41 | 42.40765 | 9.60344 | 3393 ft | 218 kts | 148° |
| 2026-04-18 08:41 | 42.39448 | 9.61341 | 3296 ft | 216 kts | 148° |
| 2026-04-18 08:42 | 42.38117 | 9.62275 | 3215 ft | 215 kts | 160° |
| 2026-04-18 08:42 | 42.36687 | 9.62331 | 3141 ft | 208 kts | 197° |
| 2026-04-18 08:42 | 42.35509 | 9.61284 | 3076 ft | 204 kts | 232° |
| 2026-04-18 08:42 | 42.34972 | 9.59560 | 3015 ft | 201 kts | 267° |
| 2026-04-18 08:43 | 42.35221 | 9.57747 | 2945 ft | 197 kts | 301° |
| 2026-04-18 08:43 | 42.36108 | 9.56473 | 2907 ft | 179 kts | 332° |
| 2026-04-18 08:43 | 42.37218 | 9.55913 | 2836 ft | 164 kts | 345° |
| 2026-04-18 08:43 | 42.38297 | 9.55467 | 2782 ft | 163 kts | 346° |
| 2026-04-18 08:44 | 42.39373 | 9.55026 | 2746 ft | 157 kts | 346° |
| 2026-04-18 08:44 | 42.40413 | 9.54600 | 2667 ft | 156 kts | 346° |
| 2026-04-18 08:44 | 42.41455 | 9.54178 | 2568 ft | 156 kts | 346° |
| 2026-04-18 08:44 | 42.42496 | 9.53732 | 2410 ft | 157 kts | 345° |
| 2026-04-18 08:45 | 42.43514 | 9.53246 | 2263 ft | 152 kts | 343° |
| 2026-04-18 08:45 | 42.44499 | 9.52762 | 2028 ft | 150 kts | 345° |
| 2026-04-18 08:45 | 42.45493 | 9.52381 | 1762 ft | 147 kts | 346° |
| 2026-04-18 08:45 | 42.46456 | 9.52006 | 1622 ft | 139 kts | 347° |
| 2026-04-18 08:46 | 42.47357 | 9.51643 | 1509 ft | 131 kts | 346° |
| 2026-04-18 08:46 | 42.48226 | 9.51281 | 1448 ft | 131 kts | 345° |
| 2026-04-18 08:46 | 42.49113 | 9.50915 | 1297 ft | 135 kts | 346° |
| 2026-04-18 08:46 | 42.50018 | 9.50557 | 1050 ft | 135 kts | 345° |
| 2026-04-18 08:47 | 42.50904 | 9.50169 | 785 ft | 134 kts | 343° |
| 2026-04-18 08:47 | 42.51795 | 9.49798 | 566 ft | 134 kts | 345° |
| 2026-04-18 08:47 | 42.52707 | 9.49462 | 404 ft | 138 kts | 345° |
| 2026-04-18 08:47 | 42.53630 | 9.49058 | 206 ft | 140 kts | 342° |
| 2026-04-18 08:48 | 42.54552 | 9.48662 | 54 ft | 133 kts | 343° |
| 2026-04-18 08:48 | 42.55344 | 9.48340 | 37 ft | 98 kts | 343° |
| 2026-04-18 08:48 | 42.55812 | 9.48145 | 32 ft | 39 kts | 343° |
| 2026-04-18 08:48 | 42.55962 | 9.48006 | 32 ft | 23 kts | 259° |
| 2026-04-18 08:49 | 42.55876 | 9.47871 | 33 ft | 17 kts | 162° |
| 2026-04-18 08:49 | 42.55756 | 9.47909 | 32 ft | 19 kts | 163° |
| 2026-04-18 08:49 | 42.55626 | 9.47965 | 34 ft | 21 kts | 162° |
| 2026-04-18 08:49 | 42.55482 | 9.48029 | 35 ft | 23 kts | 162° |
| 2026-04-18 08:50 | 42.55324 | 9.48094 | 34 ft | 25 kts | 163° |
| 2026-04-18 08:50 | 42.55157 | 9.48163 | 37 ft | 25 kts | 162° |
| 2026-04-18 08:50 | 42.54985 | 9.48232 | 37 ft | 23 kts | 172° |
| 2026-04-18 08:50 | 42.54912 | 9.48204 | 38 ft | 6 kts | 259° |
| 2026-04-18 08:51 | 42.54911 | 9.48201 | 38 ft | 0 kts | 249° |
| 2026-04-18 08:51 | 42.54893 | 9.48192 | 39 ft | 3 kts | 199° |
| 2026-04-18 08:51 | 42.54885 | 9.48178 | 39 ft | 1 kts | 252° |
| 2026-04-18 08:51 | 42.54885 | 9.48171 | 39 ft | 0 kts | 272° |
| 2026-04-18 08:52 | 42.54886 | 9.48166 | 39 ft | 2 kts | 283° |
| 2026-04-18 08:52 | 42.54889 | 9.48152 | 39 ft | 1 kts | 282° |
| 2026-04-18 08:52 | 42.54890 | 9.48140 | 39 ft | 0 kts | 282° |